createdAt,value
2022-12-06T00:01:10.442Z,100954.02
2022-12-06T00:03:37.664Z,100953.58
2022-12-06T00:06:06.391Z,100959.10
2022-12-06T00:08:33.124Z,100965.62
2022-12-06T00:11:03.914Z,100963.85
2022-12-06T00:13:30.656Z,100962.61
2022-12-06T00:16:00.746Z,100962.06
2022-12-06T00:18:27.448Z,100963.58
2022-12-06T00:20:54.215Z,100964.08
2022-12-06T00:23:20.909Z,100957.59
2022-12-06T00:25:47.669Z,100959.91
2022-12-06T00:28:14.292Z,100955.99
2022-12-06T00:30:40.998Z,100954.83
2022-12-06T00:33:07.700Z,100953.98
2022-12-06T00:35:34.497Z,100946.39
2022-12-06T00:38:01.086Z,100947.38
2022-12-06T00:40:28.011Z,100945.47
2022-12-06T00:42:54.774Z,100940.58
2022-12-06T00:45:21.416Z,100940.65
2022-12-06T00:47:48.112Z,100938.10
2022-12-06T00:50:14.787Z,100931.74
2022-12-06T00:52:41.493Z,100928.77
2022-12-06T00:55:08.552Z,100928.73
2022-12-06T00:57:35.248Z,100926.09
2022-12-06T01:00:02.434Z,100925.91
2022-12-06T01:02:29.383Z,100930.27
2022-12-06T01:04:56.293Z,100925.84
2022-12-06T01:07:23.135Z,100926.42
2022-12-06T01:09:49.776Z,100930.65
2022-12-06T01:12:16.560Z,100925.39
2022-12-06T01:14:43.241Z,100924.45
2022-12-06T01:17:10.013Z,100921.50
2022-12-06T01:19:36.818Z,100917.59
2022-12-06T01:22:03.502Z,100915.80
2022-12-06T01:24:30.261Z,100913.65
2022-12-06T01:26:56.925Z,100914.91
2022-12-06T01:29:23.651Z,100908.36
2022-12-06T01:31:50.284Z,100910.40
2022-12-06T01:34:17.145Z,100906.52
2022-12-06T01:36:44.175Z,100908.34
2022-12-06T01:39:11.041Z,100899.60
2022-12-06T01:41:38.406Z,100895.45
2022-12-06T01:44:05.240Z,100895.09
2022-12-06T01:46:38.898Z,100888.83
2022-12-06T01:49:10.461Z,100882.61
2022-12-06T01:51:37.396Z,100880.80
2022-12-06T01:54:05.022Z,100877.74
2022-12-06T01:56:31.736Z,100876.81
2022-12-06T01:58:58.927Z,100875.09
2022-12-06T02:01:26.379Z,100876.55
2022-12-06T02:03:55.092Z,100873.48
2022-12-06T02:06:21.816Z,100868.20
2022-12-06T02:08:48.411Z,100864.98
2022-12-06T02:11:15.119Z,100863.21
2022-12-06T02:13:41.857Z,100862.17
2022-12-06T02:16:27.518Z,100863.38
2022-12-06T02:18:56.056Z,100854.14
2022-12-06T02:21:27.175Z,100856.35
2022-12-06T02:24:24.413Z,100857.91
2022-12-06T02:27:52.907Z,100855.77
2022-12-06T02:30:43.994Z,100853.52
2022-12-06T02:33:17.610Z,100849.16
2022-12-06T02:35:55.054Z,100847.42
2022-12-06T02:38:46.363Z,100846.69
2022-12-06T02:41:44.439Z,100842.16
2022-12-06T02:44:16.239Z,100844.98
2022-12-06T02:46:43.944Z,100842.35
2022-12-06T02:49:10.835Z,100837.73
2022-12-06T02:51:37.630Z,100844.04
2022-12-06T02:54:05.416Z,100850.61
2022-12-06T02:56:32.905Z,100848.73
2022-12-06T02:58:59.727Z,100840.66
2022-12-06T03:01:45.635Z,100844.48
2022-12-06T03:04:49.889Z,100844.05
2022-12-06T03:07:28.840Z,100849.68
2022-12-06T03:10:05.963Z,100848.45
2022-12-06T03:13:00.344Z,100850.52
2022-12-06T03:15:34.279Z,100846.73
2022-12-06T03:18:07.934Z,100845.51
2022-12-06T03:20:46.352Z,100844.73
2022-12-06T03:23:23.751Z,100845.89
2022-12-06T03:25:50.438Z,100847.65
2022-12-06T03:28:17.292Z,100848.07
2022-12-06T03:30:46.615Z,100847.08
2022-12-06T03:33:13.981Z,100847.77
2022-12-06T03:35:40.830Z,100844.79
2022-12-06T03:38:12.356Z,100842.04
2022-12-06T03:40:39.907Z,100840.03
2022-12-06T03:43:06.686Z,100834.59
2022-12-06T03:45:36.444Z,100839.09
2022-12-06T03:48:08.190Z,100843.59
2022-12-06T03:50:38.923Z,100839.04
2022-12-06T03:53:05.699Z,100838.09
2022-12-06T03:55:32.301Z,100837.41
2022-12-06T03:57:59.019Z,100838.73
2022-12-06T04:00:25.684Z,100836.17
2022-12-06T04:02:52.377Z,100834.70
2022-12-06T04:05:19.231Z,100835.52
2022-12-06T04:07:45.924Z,100835.12
2022-12-06T04:10:12.700Z,100832.17
2022-12-06T04:12:58.252Z,100830.48
2022-12-06T04:15:24.955Z,100825.66
2022-12-06T04:18:10.532Z,100817.14
2022-12-06T04:21:03.371Z,100815.77
2022-12-06T04:23:31.220Z,100813.83
2022-12-06T04:25:58.098Z,100812.83
2022-12-06T04:28:43.501Z,100814.61
2022-12-06T04:31:29.214Z,100812.89
2022-12-06T04:34:14.839Z,100810.79
2022-12-06T04:37:00.283Z,100809.76
2022-12-06T04:39:27.092Z,100802.69
2022-12-06T04:42:12.842Z,100802.48
2022-12-06T04:44:39.685Z,100801.83
2022-12-06T04:47:06.679Z,100803.95
2022-12-06T04:49:33.812Z,100799.50
2022-12-06T04:52:00.742Z,100800.38
2022-12-06T04:54:29.876Z,100789.52
2022-12-06T04:56:57.628Z,100797.73
2022-12-06T04:59:25.267Z,100796.11
2022-12-06T05:01:52.544Z,100798.80
2022-12-06T05:04:19.388Z,100798.69
2022-12-06T05:06:46.112Z,100793.80
2022-12-06T05:09:12.805Z,100792.95
2022-12-06T05:11:39.626Z,100793.99
2022-12-06T05:14:06.453Z,100793.12
2022-12-06T05:16:33.157Z,100795.73
2022-12-06T05:18:59.927Z,100790.80
2022-12-06T05:21:26.702Z,100789.23
2022-12-06T05:23:56.753Z,100785.02
2022-12-06T05:26:25.415Z,100787.88
2022-12-06T05:28:52.217Z,100784.91
2022-12-06T05:31:18.941Z,100782.16
2022-12-06T05:33:46.125Z,100782.07
2022-12-06T05:36:23.523Z,100776.41
2022-12-06T05:38:51.760Z,100780.37
2022-12-06T05:41:20.124Z,100776.67
2022-12-06T05:43:47.110Z,100774.39
2022-12-06T05:46:14.138Z,100774.40
2022-12-06T05:48:40.948Z,100768.80
2022-12-06T05:51:07.643Z,100771.55
2022-12-06T05:53:34.455Z,100770.08
2022-12-06T05:56:08.687Z,100768.02
2022-12-06T05:58:35.513Z,100771.27
2022-12-06T06:01:02.295Z,100769.36
2022-12-06T06:03:29.310Z,100764.38
2022-12-06T06:05:58.255Z,100765.48
2022-12-06T06:08:25.184Z,100767.64
2022-12-06T06:10:51.926Z,100765.90
2022-12-06T06:13:18.576Z,100762.79
2022-12-06T06:15:45.374Z,100757.95
2022-12-06T06:18:12.029Z,100757.15
2022-12-06T06:20:38.889Z,100755.49
2022-12-06T06:23:05.617Z,100752.33
2022-12-06T06:25:32.378Z,100753.04
2022-12-06T06:27:59.116Z,100750.98
2022-12-06T06:30:25.824Z,100754.73
2022-12-06T06:32:52.555Z,100756.31
2022-12-06T06:35:19.242Z,100751.63
2022-12-06T06:37:46.103Z,100749.34
2022-12-06T06:40:12.716Z,100747.17
2022-12-06T06:42:39.556Z,100741.88
2022-12-06T06:45:09.589Z,100739.10
2022-12-06T06:47:36.419Z,100739.29
2022-12-06T06:50:03.343Z,100734.23
2022-12-06T06:52:30.323Z,100732.57
2022-12-06T06:54:57.037Z,100733.45
2022-12-06T06:57:23.775Z,100738.27
2022-12-06T06:59:50.561Z,100737.61
2022-12-06T07:02:17.885Z,100740.79
2022-12-06T07:04:45.024Z,100734.90
2022-12-06T07:07:16.459Z,100736.95
2022-12-06T07:09:48.117Z,100731.17
2022-12-06T07:12:15.548Z,100734.59
2022-12-06T07:14:42.332Z,100731.88
2022-12-06T07:17:09.048Z,100734.81
2022-12-06T07:19:35.866Z,100729.45
2022-12-06T07:22:02.569Z,100722.95
2022-12-06T07:24:29.301Z,100721.13
2022-12-06T07:26:57.417Z,100722.02
2022-12-06T07:29:24.108Z,100722.66
2022-12-06T07:31:50.815Z,100717.74
2022-12-06T07:34:17.549Z,100718.54
2022-12-06T07:36:44.249Z,100720.23
2022-12-06T07:39:14.794Z,100720.39
2022-12-06T07:42:00.562Z,100716.96
2022-12-06T07:45:01.886Z,100719.59
2022-12-06T07:47:36.878Z,100720.88
2022-12-06T07:50:04.318Z,100716.48
2022-12-06T07:52:34.713Z,100713.68
2022-12-06T07:55:01.606Z,100712.36
2022-12-06T07:57:28.277Z,100713.55
2022-12-06T07:59:55.671Z,100709.21
2022-12-06T08:02:25.716Z,100709.20
2022-12-06T08:04:53.088Z,100706.73
2022-12-06T08:07:20.501Z,100700.25
2022-12-06T08:09:47.666Z,100696.83
2022-12-06T08:12:14.663Z,100700.02
2022-12-06T08:14:41.557Z,100694.67
2022-12-06T08:17:08.269Z,100690.05
2022-12-06T08:19:34.995Z,100683.95
2022-12-06T08:22:01.696Z,100679.13
2022-12-06T08:24:28.403Z,100676.64
2022-12-06T08:26:55.335Z,100671.38
2022-12-06T08:29:22.425Z,100669.52
2022-12-06T08:31:49.232Z,100670.66
2022-12-06T08:34:16.358Z,100669.50
2022-12-06T08:36:43.190Z,100667.81
2022-12-06T08:39:10.388Z,100663.91
2022-12-06T08:41:55.294Z,100659.34
2022-12-06T08:44:22.083Z,100657.84
2022-12-06T08:46:48.942Z,100653.19
2022-12-06T08:49:16.587Z,100648.39
2022-12-06T08:51:43.311Z,100646.98
2022-12-06T08:54:13.096Z,100646.30
2022-12-06T08:56:39.920Z,100643.54
2022-12-06T08:59:07.068Z,100644.05
2022-12-06T09:01:37.870Z,100630.87
2022-12-06T09:04:06.534Z,100640.88
2022-12-06T09:06:33.392Z,100639.49
2022-12-06T09:09:00.102Z,100635.33
2022-12-06T09:11:27.032Z,100628.30
2022-12-06T09:13:53.698Z,100637.09
2022-12-06T09:16:22.157Z,100632.15
2022-12-06T09:18:49.098Z,100624.33
2022-12-06T09:21:16.821Z,100620.77
2022-12-06T09:23:43.712Z,100617.92
2022-12-06T09:26:10.392Z,100620.39
2022-12-06T09:28:38.850Z,100613.33
2022-12-06T09:31:06.285Z,100613.17
2022-12-06T09:33:33.438Z,100615.45
2022-12-06T09:36:01.995Z,100612.58
2022-12-06T09:38:29.599Z,100607.17
2022-12-06T09:41:18.376Z,100609.53
2022-12-06T09:44:12.763Z,100602.98
2022-12-06T09:47:17.225Z,100598.55
2022-12-06T09:50:15.017Z,100597.66
2022-12-06T09:52:52.152Z,100584.02
2022-12-06T09:55:44.150Z,100587.30
2022-12-06T09:58:23.174Z,100592.83
2022-12-06T10:01:03.922Z,100585.79
2022-12-06T10:03:35.239Z,100578.73
2022-12-06T10:06:03.977Z,100577.06
2022-12-06T10:08:52.616Z,100571.52
2022-12-06T10:11:42.161Z,100571.73
2022-12-06T10:14:30.833Z,100563.84
2022-12-06T10:17:03.841Z,100564.85
2022-12-06T10:19:52.824Z,100561.22
2022-12-06T10:22:47.180Z,100561.64
2022-12-06T10:27:39.885Z,100555.90
2022-12-06T10:30:14.150Z,100552.70
2022-12-06T10:32:51.932Z,100549.93
2022-12-06T10:35:24.651Z,100547.38
2022-12-06T17:25:25.944Z,100246.52
2022-12-06T17:27:52.811Z,100244.39
2022-12-06T17:30:20.164Z,100241.77
2022-12-06T17:32:47.218Z,100226.00
2022-12-06T17:35:14.271Z,100230.10
2022-12-06T17:37:41.016Z,100233.13
2022-12-06T17:40:08.299Z,100235.06
2022-12-06T17:42:53.668Z,100232.09
2022-12-06T17:45:24.648Z,100229.33
2022-12-06T17:47:51.741Z,100229.04
2022-12-06T17:50:18.572Z,100227.39
2022-12-06T17:52:45.329Z,100223.19
2022-12-06T17:55:13.092Z,100220.89
2022-12-06T17:57:39.837Z,100219.45
2022-12-06T18:00:07.248Z,100216.39
2022-12-06T18:02:34.038Z,100210.85
2022-12-06T18:05:01.265Z,100212.86
2022-12-06T18:07:28.362Z,100208.61
2022-12-06T18:09:55.052Z,100206.95
2022-12-06T18:12:21.800Z,100200.80
2022-12-06T18:14:48.502Z,100198.70
2022-12-06T18:17:15.216Z,100198.09
2022-12-06T18:19:43.665Z,100195.23
2022-12-06T18:22:10.387Z,100190.75
2022-12-06T18:24:37.226Z,100186.73
2022-12-06T18:27:05.072Z,100187.95
2022-12-06T18:29:31.892Z,100185.80
2022-12-06T18:31:58.662Z,100190.75
2022-12-06T18:34:25.536Z,100190.73
2022-12-06T18:36:52.325Z,100193.83
2022-12-06T18:39:24.375Z,100189.38
2022-12-06T18:41:52.481Z,100183.47
2022-12-06T18:44:19.304Z,100182.41
2022-12-06T18:46:45.984Z,100177.76
2022-12-06T18:49:12.755Z,100169.78
2022-12-06T18:51:39.545Z,100164.69
2022-12-06T18:54:06.378Z,100159.95
2022-12-06T18:56:33.268Z,100159.73
2022-12-06T18:59:00.448Z,100159.55
2022-12-06T19:01:34.920Z,100154.57
2022-12-06T19:04:03.342Z,100146.67
2022-12-06T19:06:32.307Z,100148.38
2022-12-06T19:09:01.081Z,100146.95
2022-12-06T19:11:27.857Z,100142.12
2022-12-06T19:13:55.691Z,100145.60
2022-12-06T19:16:26.669Z,100146.55
2022-12-06T19:18:54.704Z,100140.20
2022-12-06T19:21:21.472Z,100138.05
2022-12-06T19:23:48.425Z,100137.14
2022-12-06T19:26:15.054Z,100134.20
2022-12-06T19:28:41.849Z,100126.27
2022-12-06T19:31:09.120Z,100126.29
2022-12-06T19:33:38.322Z,100125.78
2022-12-06T19:36:07.052Z,100110.95
2022-12-06T19:38:33.860Z,100117.14
2022-12-06T19:41:04.218Z,100113.65
2022-12-06T19:43:49.496Z,100113.42
2022-12-06T19:46:26.044Z,100110.13
2022-12-06T19:48:53.691Z,100104.14
2022-12-06T19:51:20.461Z,100105.30
2022-12-06T19:53:47.063Z,100105.11
2022-12-06T19:56:14.953Z,100100.96
2022-12-06T19:58:41.730Z,100099.90
2022-12-06T20:01:09.322Z,100093.98
2022-12-06T20:03:36.267Z,100095.14
2022-12-06T20:06:08.280Z,100090.88
2022-12-06T20:08:35.673Z,100091.77
2022-12-06T20:11:03.644Z,100085.62
2022-12-06T20:13:30.440Z,100086.73
2022-12-06T20:16:01.076Z,100082.95
2022-12-06T20:18:29.001Z,100082.00
2022-12-06T20:20:55.824Z,100080.54
2022-12-06T20:23:22.550Z,100075.69
2022-12-06T20:25:49.312Z,100071.98
2022-12-06T20:28:16.187Z,100072.02
2022-12-06T20:30:42.875Z,100074.13
2022-12-06T20:33:09.625Z,100070.70
2022-12-06T20:35:37.174Z,100072.21
2022-12-06T20:38:03.926Z,100071.95
2022-12-06T20:40:31.753Z,100072.38
2022-12-06T20:42:58.739Z,100068.38
2022-12-06T20:45:25.536Z,100064.83
2022-12-06T20:47:52.178Z,100062.02
2022-12-06T20:50:18.876Z,100063.48
2022-12-06T20:52:45.625Z,100054.98
2022-12-06T20:55:12.375Z,100054.84
2022-12-06T20:57:39.145Z,100052.02
2022-12-06T21:00:07.831Z,100046.95
2022-12-06T21:02:34.952Z,100045.73
2022-12-06T21:05:01.758Z,100048.07
2022-12-06T21:07:28.447Z,100049.70
2022-12-06T21:09:55.264Z,100042.95
2022-12-06T21:12:22.487Z,100040.50
2022-12-06T21:14:49.192Z,100030.42
2022-12-06T21:17:15.908Z,100028.41
2022-12-06T21:19:42.940Z,100026.54
2022-12-06T21:22:09.856Z,100018.24
2022-12-06T21:24:36.583Z,100017.94
2022-12-06T21:27:03.303Z,100010.04
2022-12-06T21:29:31.169Z,100005.98
2022-12-06T21:32:00.664Z,100000.16
2022-12-06T21:34:27.415Z,99997.89
2022-12-06T21:36:54.128Z,99994.62
2022-12-06T21:39:20.858Z,99991.95
2022-12-06T21:41:47.545Z,99991.73
2022-12-06T21:44:14.249Z,99986.73
2022-12-06T21:46:41.056Z,99980.92
2022-12-06T21:49:07.873Z,99980.84
2022-12-06T21:51:34.570Z,99977.30
2022-12-06T21:54:01.552Z,99971.54
2022-12-06T21:56:29.284Z,99969.56
2022-12-06T21:58:56.121Z,99963.17
2022-12-06T22:01:24.640Z,99952.30
